Time;durP1;ratioP1;P1;durP2;ratioP2;P2;SDS_P1;SDS_P2;PMS_P1;PMS_P2;Temp;Humidity;BMP_temperature;BMP_pressure;BME280_temperature;BME280_humidity;BME280_pressure;Samples;Min_cycle;Max_cycle;Signal;HPM_P1;HPM_P2
2024/01/30 00:02:19;;;;;;;0.20;0.20;;;;;;;;;;5033212;28;20457;-74
2024/01/30 00:04:46;;;;;;;0.20;0.20;;;;;;;;;;5044106;28;20207;-74
2024/01/30 00:07:13;;;;;;;0.20;0.20;;;;;;;;;;5032861;28;20319;-74
2024/01/30 00:09:40;;;;;;;0.20;0.20;;;;;;;;;;5044494;28;20227;-74
2024/01/30 00:12:07;;;;;;;0.20;0.20;;;;;;;;;;5033007;28;20455;-74
2024/01/30 00:14:33;;;;;;;0.20;0.20;;;;;;;;;;5044344;28;20214;-74
2024/01/30 00:16:59;;;;;;;0.20;0.20;;;;;;;;;;5033043;28;20527;-74
2024/01/30 00:19:26;;;;;;;0.20;0.20;;;;;;;;;;5044253;28;20204;-74
2024/01/30 00:21:52;;;;;;;1.63;1.63;;;;;;;;;;5032949;28;20240;-75
2024/01/30 00:24:20;;;;;;;0.20;0.20;;;;;;;;;;5044085;28;20205;-74
2024/01/30 00:26:46;;;;;;;14.43;9.23;;;;;;;;;;5032850;28;20308;-73
2024/01/30 00:29:19;;;;;;;0.20;0.20;;;;;;;;;;5043921;28;20275;-74
2024/01/30 00:31:45;;;;;;;0.20;0.20;;;;;;;;;;5032938;28;20248;-74
2024/01/30 00:34:11;;;;;;;0.20;0.20;;;;;;;;;;5043801;28;20234;-74
2024/01/30 00:36:38;;;;;;;0.20;0.20;;;;;;;;;;5032721;28;20243;-73
2024/01/30 00:39:06;;;;;;;0.20;0.20;;;;;;;;;;5043530;28;20214;-74
2024/01/30 00:41:33;;;;;;;0.20;0.20;;;;;;;;;;5032826;28;20561;-73
2024/01/30 00:44:00;;;;;;;0.20;0.20;;;;;;;;;;5043501;28;20238;-74
2024/01/30 00:46:26;;;;;;;0.20;0.20;;;;;;;;;;5033227;28;20471;-74
2024/01/30 00:48:52;;;;;;;0.20;0.20;;;;;;;;;;5043059;28;20463;-74
2024/01/30 00:51:19;;;;;;;0.50;0.50;;;;;;;;;;5032827;28;20239;-74
2024/01/30 00:53:46;;;;;;;0.20;0.20;;;;;;;;;;5043309;28;20251;-74
2024/01/30 00:56:12;;;;;;;0.20;0.20;;;;;;;;;;5032823;28;20254;-74
2024/01/30 00:58:40;;;;;;;0.20;0.20;;;;;;;;;;5043107;28;20553;-74
2024/01/30 01:01:07;;;;;;;0.20;0.20;;;;;;;;;;5033005;28;20247;-73
2024/01/30 01:03:33;;;;;;;0.20;0.20;;;;;;;;;;5042594;28;20196;-74
2024/01/30 01:06:00;;;;;;;0.20;0.20;;;;;;;;;;5032836;28;20238;-74
2024/01/30 01:08:26;;;;;;;0.20;0.20;;;;;;;;;;5043016;28;20285;-74
2024/01/30 01:10:53;;;;;;;0.20;0.20;;;;;;;;;;5033166;28;20299;-74
2024/01/30 01:13:20;;;;;;;0.20;0.20;;;;;;;;;;5042640;28;20204;-73
2024/01/30 01:15:47;;;;;;;0.20;0.20;;;;;;;;;;5032923;28;20248;-75
2024/01/30 01:18:14;;;;;;;0.13;0.13;;;;;;;;;;5042736;28;20219;-73
2024/01/30 01:20:40;;;;;;;0.20;0.20;;;;;;;;;;5033262;28;20441;-74
2024/01/30 01:23:06;;;;;;;0.10;0.10;;;;;;;;;;5042480;28;20528;-74
2024/01/30 01:25:33;;;;;;;0.10;0.10;;;;;;;;;;5033330;28;20236;-73
2024/01/30 01:28:01;;;;;;;0.20;0.20;;;;;;;;;;5042360;28;20387;-73
2024/01/30 01:30:29;;;;;;;0.20;0.20;;;;;;;;;;5033425;28;20207;-73
2024/01/30 01:32:59;;;;;;;0.20;0.20;;;;;;;;;;5042474;28;20213;-73
2024/01/30 01:35:26;;;;;;;0.20;0.20;;;;;;;;;;5033183;28;20246;-73
2024/01/30 01:37:54;;;;;;;0.20;0.20;;;;;;;;;;5042289;28;20210;-73
2024/01/30 01:40:21;;;;;;;0.20;0.20;;;;;;;;;;5032923;28;20211;-73
2024/01/30 01:42:48;;;;;;;0.20;0.20;;;;;;;;;;5042003;28;20211;-73
2024/01/30 01:45:14;;;;;;;0.20;0.20;;;;;;;;;;5033194;28;20202;-74
2024/01/30 01:47:41;;;;;;;0.20;0.20;;;;;;;;;;5041882;28;20341;-74
2024/01/30 01:50:09;;;;;;;0.20;0.20;;;;;;;;;;5045829;28;20199;-73
2024/01/30 01:52:35;;;;;;;0.20;0.20;;;;;;;;;;5035345;28;20223;-74
2024/01/30 01:55:01;;;;;;;0.20;0.20;;;;;;;;;;5046592;28;20277;-74
2024/01/30 01:57:28;;;;;;;0.20;0.20;;;;;;;;;;5035520;28;20638;-73
2024/01/30 01:59:54;;;;;;;0.20;0.20;;;;;;;;;;5046637;28;20212;-74
2024/01/30 02:02:21;;;;;;;0.20;0.20;;;;;;;;;;5035366;28;20261;-73
2024/01/30 02:04:47;;;;;;;0.20;0.20;;;;;;;;;;5046367;28;20453;-73
2024/01/30 02:07:16;;;;;;;0.20;0.20;;;;;;;;;;5035099;28;20251;-74
2024/01/30 02:09:42;;;;;;;0.20;0.20;;;;;;;;;;5046787;28;20211;-74
2024/01/30 02:12:08;;;;;;;0.20;0.20;;;;;;;;;;5035250;28;20271;-74
2024/01/30 02:14:44;;;;;;;0.20;0.20;;;;;;;;;;5046682;28;20229;-73
2024/01/30 02:17:11;;;;;;;0.20;0.20;;;;;;;;;;5035223;28;20241;-73
2024/01/30 02:19:37;;;;;;;0.20;0.20;;;;;;;;;;5046436;28;20249;-73
2024/01/30 02:22:05;;;;;;;0.20;0.20;;;;;;;;;;5035222;28;20247;-73
2024/01/30 02:24:32;;;;;;;0.20;0.20;;;;;;;;;;5046301;28;20279;-74
2024/01/30 02:26:58;;;;;;;0.20;0.20;;;;;;;;;;5034932;28;20240;-73
2024/01/30 02:29:24;;;;;;;0.20;0.20;;;;;;;;;;5045813;28;20214;-73
2024/01/30 02:31:52;;;;;;;0.20;0.20;;;;;;;;;;5035132;28;20244;-74
2024/01/30 02:34:19;;;;;;;0.20;0.20;;;;;;;;;;5046049;28;20274;-74
2024/01/30 02:36:45;;;;;;;0.20;0.20;;;;;;;;;;5034975;28;20249;-74
2024/01/30 02:39:13;;;;;;;0.20;0.20;;;;;;;;;;5045984;28;20504;-74
2024/01/30 02:41:39;;;;;;;0.20;0.20;;;;;;;;;;5034957;28;20261;-74
2024/01/30 02:44:06;;;;;;;0.20;0.20;;;;;;;;;;5045305;28;20314;-73
2024/01/30 02:46:32;;;;;;;0.20;0.20;;;;;;;;;;5035042;28;20443;-73
2024/01/30 02:48:58;;;;;;;0.20;0.20;;;;;;;;;;5045443;28;20207;-73
2024/01/30 02:51:25;;;;;;;0.20;0.20;;;;;;;;;;5035089;28;20249;-73
2024/01/30 02:53:51;;;;;;;0.20;0.20;;;;;;;;;;5045400;28;20252;-74
2024/01/30 02:56:19;;;;;;;0.20;0.20;;;;;;;;;;5034787;28;20270;-74
2024/01/30 02:58:45;;;;;;;0.20;0.20;;;;;;;;;;5045196;28;20391;-74
2024/01/30 03:01:12;;;;;;;0.20;0.20;;;;;;;;;;5034937;28;20488;-73
2024/01/30 03:03:40;;;;;;;0.20;0.20;;;;;;;;;;5044979;28;20248;-73
2024/01/30 03:06:06;;;;;;;0.20;0.20;;;;;;;;;;5034872;28;20302;-73
2024/01/30 03:08:34;;;;;;;0.20;0.20;;;;;;;;;;5044964;28;20278;-73
2024/01/30 03:11:01;;;;;;;0.20;0.20;;;;;;;;;;5034775;28;20243;-73
2024/01/30 03:13:29;;;;;;;0.20;0.20;;;;;;;;;;5044764;28;20277;-73
2024/01/30 03:15:55;;;;;;;0.20;0.20;;;;;;;;;;5034650;28;20285;-73
2024/01/30 03:18:22;;;;;;;0.20;0.20;;;;;;;;;;5044638;28;20203;-73
2024/01/30 03:20:48;;;;;;;0.20;0.20;;;;;;;;;;5034767;28;20248;-73
2024/01/30 03:23:15;;;;;;;0.20;0.20;;;;;;;;;;5044523;28;20210;-73
2024/01/30 03:25:41;;;;;;;0.20;0.20;;;;;;;;;;5034607;28;20239;-74
2024/01/30 03:28:08;;;;;;;0.20;0.20;;;;;;;;;;5044233;28;20273;-74
2024/01/30 03:30:36;;;;;;;0.20;0.20;;;;;;;;;;5034773;28;20260;-74
2024/01/30 03:33:03;;;;;;;0.20;0.20;;;;;;;;;;5044291;28;20252;-73
2024/01/30 03:35:29;;;;;;;0.20;0.20;;;;;;;;;;5034527;28;20254;-74
2024/01/30 03:37:56;;;;;;;0.20;0.20;;;;;;;;;;5044035;28;20223;-74
2024/01/30 03:40:22;;;;;;;0.20;0.20;;;;;;;;;;5034524;28;20278;-75
2024/01/30 03:42:49;;;;;;;0.20;0.20;;;;;;;;;;5043694;28;20249;-73
2024/01/30 03:45:15;;;;;;;0.20;0.20;;;;;;;;;;5034410;28;20256;-73
2024/01/30 03:47:45;;;;;;;0.20;0.20;;;;;;;;;;5043643;28;20274;-74
2024/01/30 03:50:12;;;;;;;0.20;0.20;;;;;;;;;;5034334;28;20244;-74
2024/01/30 03:52:38;;;;;;;0.20;0.20;;;;;;;;;;5043656;28;20205;-73
2024/01/30 03:55:05;;;;;;;0.20;0.20;;;;;;;;;;5044575;28;20206;-74
2024/01/30 03:57:31;;;;;;;0.20;0.20;;;;;;;;;;5033251;28;20482;-74
2024/01/30 03:59:58;;;;;;;0.20;0.20;;;;;;;;;;5044072;28;20215;-73
2024/01/30 04:02:24;;;;;;;0.20;0.20;;;;;;;;;;5033190;28;20316;-74
2024/01/30 04:04:52;;;;;;;0.73;0.73;;;;;;;;;;5043955;28;20431;-73
2024/01/30 04:07:18;;;;;;;0.20;0.20;;;;;;;;;;5033034;28;20484;-74
2024/01/30 04:09:45;;;;;;;0.20;0.20;;;;;;;;;;5043968;28;20446;-73
2024/01/30 04:12:11;;;;;;;0.20;0.20;;;;;;;;;;5032712;28;20246;-73
2024/01/30 04:14:38;;;;;;;0.20;0.20;;;;;;;;;;5044330;28;20204;-74
2024/01/30 04:17:05;;;;;;;0.20;0.20;;;;;;;;;;5032793;28;20233;-74
2024/01/30 04:19:31;;;;;;;0.20;0.20;;;;;;;;;;5044199;28;20390;-73
2024/01/30 04:21:59;;;;;;;0.20;0.20;;;;;;;;;;5033019;28;20567;-73
2024/01/30 04:24:25;;;;;;;0.20;0.20;;;;;;;;;;5043978;28;20210;-73
2024/01/30 04:26:52;;;;;;;0.20;0.20;;;;;;;;;;5032999;28;20284;-74
2024/01/30 04:29:19;;;;;;;0.20;0.20;;;;;;;;;;5043948;28;20448;-74
2024/01/30 04:31:45;;;;;;;0.20;0.20;;;;;;;;;;5032981;28;20240;-73
2024/01/30 04:34:12;;;;;;;0.20;0.20;;;;;;;;;;5043784;28;20238;-74
2024/01/30 04:36:38;;;;;;;0.20;0.20;;;;;;;;;;5032826;28;20312;-74
2024/01/30 04:39:06;;;;;;;0.20;0.20;;;;;;;;;;5043705;28;20271;-73
2024/01/30 04:41:32;;;;;;;0.40;0.40;;;;;;;;;;5032856;28;20242;-73
2024/01/30 04:43:58;;;;;;;0.20;0.20;;;;;;;;;;5043529;28;20518;-73
2024/01/30 04:46:25;;;;;;;0.10;0.10;;;;;;;;;;5032994;28;20267;-72
2024/01/30 04:48:51;;;;;;;0.17;0.17;;;;;;;;;;5043261;28;20277;-73
2024/01/30 04:51:18;;;;;;;0.20;0.20;;;;;;;;;;5032848;28;20309;-74
2024/01/30 04:53:44;;;;;;;0.17;0.17;;;;;;;;;;5043101;28;20204;-74
2024/01/30 04:56:12;;;;;;;0.20;0.20;;;;;;;;;;5032988;28;20232;-74
2024/01/30 04:58:38;;;;;;;0.20;0.20;;;;;;;;;;5043085;28;20263;-74
2024/01/30 05:01:05;;;;;;;0.20;0.20;;;;;;;;;;5032979;28;20238;-73
2024/01/30 05:03:33;;;;;;;0.20;0.20;;;;;;;;;;5043109;28;20396;-74
2024/01/30 05:06:00;;;;;;;0.20;0.20;;;;;;;;;;5032514;28;20260;-74
2024/01/30 05:08:26;;;;;;;0.20;0.20;;;;;;;;;;5042927;28;20272;-73
2024/01/30 05:10:53;;;;;;;0.20;0.20;;;;;;;;;;5032984;28;20369;-74
2024/01/30 05:13:20;;;;;;;0.20;0.20;;;;;;;;;;5042960;28;20211;-74
2024/01/30 05:15:47;;;;;;;0.20;0.20;;;;;;;;;;5033095;28;20318;-74
2024/01/30 05:18:13;;;;;;;0.20;0.20;;;;;;;;;;5042766;28;20226;-73
2024/01/30 05:20:40;;;;;;;0.20;0.20;;;;;;;;;;5032938;28;20241;-76
2024/01/30 05:23:06;;;;;;;0.20;0.20;;;;;;;;;;5042705;28;20250;-74
2024/01/30 05:25:33;;;;;;;0.20;0.20;;;;;;;;;;5036687;28;20295;-73
2024/01/30 05:27:59;;;;;;;0.20;0.20;;;;;;;;;;5046637;28;20391;-73
2024/01/30 05:30:27;;;;;;;0.10;0.10;;;;;;;;;;5037108;28;20206;-74
2024/01/30 05:32:53;;;;;;;0.20;0.20;;;;;;;;;;5046502;28;20520;-73
2024/01/30 05:35:21;;;;;;;0.20;0.20;;;;;;;;;;5036820;28;20204;-73
2024/01/30 05:37:47;;;;;;;0.20;0.20;;;;;;;;;;5046004;28;20534;-75
2024/01/30 05:40:14;;;;;;;0.20;0.20;;;;;;;;;;5037033;28;20204;-74
2024/01/30 05:42:40;;;;;;;0.20;0.20;;;;;;;;;;5046114;28;20508;-73
2024/01/30 05:45:07;;;;;;;0.20;0.20;;;;;;;;;;5047018;28;20250;-73
2024/01/30 05:47:35;;;;;;;0.20;0.20;;;;;;;;;;5035518;28;20204;-74
2024/01/30 05:50:01;;;;;;;0.20;0.20;;;;;;;;;;5046615;28;20513;-74
2024/01/30 05:52:28;;;;;;;0.20;0.20;;;;;;;;;;5035669;28;20263;-74
2024/01/30 05:54:54;;;;;;;0.20;0.20;;;;;;;;;;5046602;28;20238;-73
2024/01/30 05:57:20;;;;;;;0.20;0.20;;;;;;;;;;5035498;28;20257;-74
2024/01/30 05:59:47;;;;;;;0.20;0.20;;;;;;;;;;5046456;28;20280;-74
2024/01/30 06:02:14;;;;;;;0.20;0.20;;;;;;;;;;5035505;28;20244;-73
2024/01/30 06:04:41;;;;;;;0.20;0.20;;;;;;;;;;5046847;28;20206;-73
2024/01/30 06:07:08;;;;;;;0.20;0.20;;;;;;;;;;5035497;28;20305;-74
2024/01/30 06:09:34;;;;;;;0.47;0.47;;;;;;;;;;5046726;28;20206;-73
2024/01/30 06:12:01;;;;;;;0.20;0.20;;;;;;;;;;5035486;28;20308;-73
2024/01/30 06:14:27;;;;;;;0.20;0.20;;;;;;;;;;5046029;28;20245;-73
2024/01/30 06:16:53;;;;;;;0.20;0.20;;;;;;;;;;5035244;28;20236;-74
2024/01/30 06:19:20;;;;;;;0.20;0.20;;;;;;;;;;5046420;28;20210;-74
2024/01/30 06:21:47;;;;;;;0.20;0.20;;;;;;;;;;5035301;28;20489;-74
2024/01/30 06:24:14;;;;;;;0.20;0.20;;;;;;;;;;5046336;28;20276;-74
2024/01/30 06:26:41;;;;;;;0.40;0.40;;;;;;;;;;5035310;28;20260;-74
2024/01/30 06:29:07;;;;;;;0.20;0.20;;;;;;;;;;5046080;28;20497;-73
2024/01/30 06:31:33;;;;;;;0.20;0.20;;;;;;;;;;5035321;28;20241;-74
2024/01/30 06:34:00;;;;;;;0.20;0.20;;;;;;;;;;5045860;28;20283;-74
2024/01/30 06:36:26;;;;;;;0.20;0.20;;;;;;;;;;5034711;28;20352;-73
2024/01/30 06:38:54;;;;;;;0.20;0.20;;;;;;;;;;5045368;28;20276;-75
2024/01/30 06:41:20;;;;;;;0.20;0.20;;;;;;;;;;5035124;28;20247;-74
2024/01/30 06:43:47;;;;;;;0.20;0.20;;;;;;;;;;5045668;28;20213;-74
2024/01/30 06:46:13;;;;;;;0.20;0.20;;;;;;;;;;5035173;28;20242;-73
2024/01/30 06:48:41;;;;;;;0.30;0.30;;;;;;;;;;5045451;28;20205;-74
2024/01/30 06:51:07;;;;;;;0.20;0.20;;;;;;;;;;5035115;28;20246;-74
2024/01/30 06:53:34;;;;;;;0.20;0.20;;;;;;;;;;5045094;28;20205;-72
2024/01/30 06:56:01;;;;;;;0.20;0.20;;;;;;;;;;5034894;28;20241;-74
2024/01/30 06:58:28;;;;;;;0.20;0.20;;;;;;;;;;5044975;28;20258;-74
2024/01/30 07:00:55;;;;;;;0.20;0.20;;;;;;;;;;5034797;28;20266;-74
2024/01/30 07:03:21;;;;;;;0.83;0.83;;;;;;;;;;5045008;28;20455;-73
2024/01/30 07:05:48;;;;;;;0.20;0.20;;;;;;;;;;5034950;28;20248;-74
2024/01/30 07:08:17;;;;;;;0.20;0.20;;;;;;;;;;5044827;28;20225;-74
2024/01/30 07:10:54;;;;;;;0.20;0.20;;;;;;;;;;5035059;28;20247;-74
2024/01/30 07:13:22;;;;;;;0.20;0.20;;;;;;;;;;5045070;28;20258;-74
2024/01/30 07:15:48;;;;;;;0.20;0.20;;;;;;;;;;5034980;28;20237;-74
2024/01/30 07:18:15;;;;;;;0.20;0.20;;;;;;;;;;5044418;28;20229;-74
2024/01/30 07:20:45;;;;;;;0.20;0.20;;;;;;;;;;5034763;28;20307;-74
2024/01/30 07:23:13;;;;;;;0.20;0.20;;;;;;;;;;5044382;28;20231;-73
2024/01/30 07:25:41;;;;;;;0.20;0.20;;;;;;;;;;5034795;28;20623;-74
2024/01/30 07:28:08;;;;;;;0.20;0.20;;;;;;;;;;5044121;28;20212;-74
2024/01/30 07:30:36;;;;;;;0.20;0.20;;;;;;;;;;5034438;28;20258;-74
2024/01/30 07:33:02;;;;;;;0.20;0.20;;;;;;;;;;5044101;28;20204;-73
2024/01/30 07:35:29;;;;;;;0.20;0.20;;;;;;;;;;5034600;28;20300;-74
2024/01/30 07:37:56;;;;;;;0.20;0.20;;;;;;;;;;5044140;28;20236;-74
2024/01/30 07:40:23;;;;;;;0.20;0.20;;;;;;;;;;5034418;28;20220;-73
2024/01/30 07:42:50;;;;;;;0.20;0.20;;;;;;;;;;5044047;28;20235;-74
2024/01/30 07:45:16;;;;;;;0.20;0.20;;;;;;;;;;5034365;28;20205;-74
2024/01/30 07:47:44;;;;;;;0.20;0.20;;;;;;;;;;5042861;28;20239;-74
2024/01/30 07:50:11;;;;;;;0.20;0.20;;;;;;;;;;5034659;28;20205;-74
2024/01/30 07:52:39;;;;;;;0.20;0.20;;;;;;;;;;5043314;28;20266;-74
2024/01/30 07:55:07;;;;;;;0.20;0.20;;;;;;;;;;5044589;28;20205;-74
2024/01/30 07:57:34;;;;;;;0.20;0.20;;;;;;;;;;5032980;28;20217;-75
2024/01/30 08:00:00;;;;;;;0.20;0.20;;;;;;;;;;5044513;28;20213;-74
2024/01/30 08:02:26;;;;;;;0.20;0.20;;;;;;;;;;5033297;28;20317;-74
2024/01/30 08:04:54;;;;;;;0.17;0.17;;;;;;;;;;5044549;28;20520;-76
2024/01/30 08:07:22;;;;;;;0.20;0.20;;;;;;;;;;5033325;28;20298;-76
2024/01/30 08:09:48;;;;;;;0.20;0.20;;;;;;;;;;5044429;28;20435;-76
2024/01/30 08:12:15;;;;;;;0.20;0.20;;;;;;;;;;5033191;28;20262;-76
2024/01/30 08:14:41;;;;;;;0.20;0.20;;;;;;;;;;5044627;28;20236;-73
2024/01/30 08:17:08;;;;;;;0.20;0.20;;;;;;;;;;5033090;28;20460;-73
2024/01/30 08:19:34;;;;;;;0.20;0.20;;;;;;;;;;5043858;28;20461;-73
2024/01/30 08:22:02;;;;;;;0.20;0.20;;;;;;;;;;5032979;28;20299;-73
2024/01/30 08:24:28;;;;;;;0.20;0.20;;;;;;;;;;5044336;28;20253;-73
2024/01/30 08:26:55;;;;;;;0.20;0.20;;;;;;;;;;5032956;28;20250;-73
2024/01/30 08:29:21;;;;;;;0.20;0.20;;;;;;;;;;5044080;28;20243;-72
2024/01/30 08:31:48;;;;;;;0.20;0.20;;;;;;;;;;5032988;28;20347;-73
2024/01/30 08:34:14;;;;;;;0.20;0.20;;;;;;;;;;5043949;28;20205;-73
2024/01/30 08:36:40;;;;;;;0.20;0.20;;;;;;;;;;5032826;28;20264;-73
2024/01/30 08:39:08;;;;;;;0.20;0.20;;;;;;;;;;5043343;28;20482;-73
2024/01/30 08:41:35;;;;;;;0.20;0.20;;;;;;;;;;5032752;28;20361;-73
2024/01/30 08:44:01;;;;;;;0.10;0.10;;;;;;;;;;5043168;28;20205;-74
2024/01/30 08:46:28;;;;;;;0.20;0.20;;;;;;;;;;5032950;28;20642;-73
2024/01/30 08:48:54;;;;;;;0.20;0.20;;;;;;;;;;5043446;28;20209;-74
2024/01/30 08:51:20;;;;;;;0.10;0.10;;;;;;;;;;5032968;28;20238;-73
2024/01/30 08:53:47;;;;;;;0.20;0.20;;;;;;;;;;5043240;28;20261;-72
2024/01/30 08:56:16;;;;;;;0.13;0.13;;;;;;;;;;5032736;28;20313;-73
2024/01/30 08:58:42;;;;;;;0.20;0.20;;;;;;;;;;5043083;28;20224;-73
2024/01/30 09:01:09;;;;;;;0.20;0.20;;;;;;;;;;5032755;28;20278;-72
2024/01/30 09:03:36;;;;;;;0.20;0.20;;;;;;;;;;5043134;28;20272;-73
2024/01/30 09:06:03;;;;;;;0.20;0.20;;;;;;;;;;5032766;28;20488;-73
2024/01/30 09:08:29;;;;;;;0.10;0.10;;;;;;;;;;5042837;28;20278;-73
2024/01/30 09:10:56;;;;;;;0.10;0.10;;;;;;;;;;5032961;28;20255;-73
2024/01/30 09:13:24;;;;;;;0.10;0.10;;;;;;;;;;5042819;28;20248;-73
2024/01/30 09:15:50;;;;;;;0.20;0.20;;;;;;;;;;5032957;28;20300;-73
2024/01/30 09:18:16;;;;;;;0.10;0.10;;;;;;;;;;5042913;28;20232;-73
2024/01/30 09:20:43;;;;;;;0.20;0.20;;;;;;;;;;5032777;28;20338;-73
2024/01/30 09:23:09;;;;;;;0.10;0.10;;;;;;;;;;5042625;28;20239;-73
2024/01/30 09:25:35;;;;;;;0.20;0.20;;;;;;;;;;5032708;28;20307;-73
2024/01/30 09:28:02;;;;;;;0.20;0.20;;;;;;;;;;5042383;28;20220;-73
2024/01/30 09:30:29;;;;;;;0.10;0.10;;;;;;;;;;5033117;28;20393;-73
2024/01/30 09:32:56;;;;;;;0.10;0.10;;;;;;;;;;5042464;28;20242;-73
2024/01/30 09:35:22;;;;;;;0.10;0.10;;;;;;;;;;5032844;28;20274;-74
2024/01/30 09:37:49;;;;;;;0.20;0.20;;;;;;;;;;5042161;28;20231;-73
2024/01/30 09:40:18;;;;;;;0.20;0.20;;;;;;;;;;5032932;28;20209;-74
2024/01/30 09:42:47;;;;;;;0.20;0.20;;;;;;;;;;5042083;28;20218;-74
2024/01/30 09:45:14;;;;;;;0.20;0.20;;;;;;;;;;5033165;28;20205;-74
2024/01/30 09:47:43;;;;;;;0.20;0.20;;;;;;;;;;5041959;28;21485;-73
2024/01/30 09:50:10;;;;;;;0.10;0.10;;;;;;;;;;5040258;28;20211;-73
2024/01/30 09:52:36;;;;;;;0.10;0.10;;;;;;;;;;5041588;28;20218;-73
2024/01/30 09:55:03;;;;;;;0.20;0.20;;;;;;;;;;5043211;28;20463;-73
2024/01/30 09:57:29;;;;;;;0.13;0.13;;;;;;;;;;5031768;28;20241;-73
2024/01/30 09:59:56;;;;;;;0.20;0.20;;;;;;;;;;5043097;28;20393;-73
2024/01/30 10:02:23;;;;;;;0.20;0.20;;;;;;;;;;5031610;28;20311;-73
2024/01/30 10:04:51;;;;;;;0.20;0.20;;;;;;;;;;5042754;28;20271;-73
2024/01/30 10:07:17;;;;;;;0.10;0.10;;;;;;;;;;5031438;28;20310;-73
2024/01/30 10:09:44;;;;;;;0.20;0.20;;;;;;;;;;5043854;28;20213;-73
2024/01/30 10:12:10;;;;;;;0.10;0.10;;;;;;;;;;5035288;28;20309;-73
2024/01/30 10:14:38;;;;;;;0.13;0.13;;;;;;;;;;5046829;28;20197;-72
2024/01/30 10:17:05;;;;;;;0.20;0.20;;;;;;;;;;5035180;28;20240;-73
2024/01/30 10:19:32;;;;;;;0.20;0.20;;;;;;;;;;5046500;28;20295;-76
2024/01/30 10:22:00;;;;;;;0.10;0.10;;;;;;;;;;5035093;28;20511;-76
2024/01/30 10:24:29;;;;;;;0.10;0.10;;;;;;;;;;5045946;28;20209;-76
2024/01/30 10:26:55;;;;;;;0.10;0.10;;;;;;;;;;5035192;28;20240;-77
2024/01/30 10:29:22;;;;;;;0.10;0.10;;;;;;;;;;5045794;28;20228;-76
2024/01/30 10:31:58;;;;;;;0.10;0.10;;;;;;;;;;5035086;28;20340;-77
2024/01/30 10:34:24;;;;;;;0.10;0.10;;;;;;;;;;5046342;28;20208;-76
2024/01/30 10:36:51;;;;;;;0.10;0.10;;;;;;;;;;5034942;28;20256;-77
2024/01/30 10:39:20;;;;;;;0.10;0.10;;;;;;;;;;5045968;28;20258;-76
2024/01/30 10:41:48;;;;;;;0.10;0.10;;;;;;;;;;5034870;28;20506;-76
2024/01/30 10:44:19;;;;;;;0.10;0.10;;;;;;;;;;5046056;28;20384;-76
2024/01/30 10:46:46;;;;;;;0.10;0.10;;;;;;;;;;5034633;28;20241;-76
2024/01/30 10:49:13;;;;;;;0.20;0.20;;;;;;;;;;5045436;28;20274;-77
2024/01/30 10:51:40;;;;;;;0.10;0.10;;;;;;;;;;5034659;28;20243;-76
2024/01/30 10:54:07;;;;;;;0.10;0.10;;;;;;;;;;5045470;28;20207;-76
2024/01/30 10:56:36;;;;;;;0.10;0.10;;;;;;;;;;5034491;28;20252;-75
2024/01/30 10:59:03;;;;;;;0.10;0.10;;;;;;;;;;5045480;28;20233;-76
2024/01/30 11:01:30;;;;;;;0.10;0.10;;;;;;;;;;5034752;28;20496;-76
2024/01/30 11:03:57;;;;;;;0.10;0.10;;;;;;;;;;5045380;28;20397;-76
2024/01/30 11:06:24;;;;;;;0.20;0.20;;;;;;;;;;5034506;28;20252;-76
2024/01/30 11:09:01;;;;;;;0.10;0.10;;;;;;;;;;5045249;28;20451;-76
2024/01/30 11:11:27;;;;;;;0.10;0.10;;;;;;;;;;5034564;28;20240;-76
2024/01/30 11:13:55;;;;;;;0.10;0.10;;;;;;;;;;5044970;28;20211;-76
2024/01/30 11:16:21;;;;;;;0.10;0.10;;;;;;;;;;5034684;28;20263;-76
2024/01/30 11:18:51;;;;;;;0.20;0.20;;;;;;;;;;5045038;28;20441;-75
2024/01/30 11:21:17;;;;;;;0.10;0.10;;;;;;;;;;5033361;28;20273;-76
2024/01/30 11:23:44;;;;;;;0.10;0.10;;;;;;;;;;5044907;28;20447;-76
2024/01/30 11:26:11;;;;;;;0.10;0.10;;;;;;;;;;5034485;28;20280;-76
2024/01/30 11:28:38;;;;;;;0.10;0.10;;;;;;;;;;5044829;28;20418;-75
2024/01/30 11:31:07;;;;;;;0.10;0.10;;;;;;;;;;5034231;28;20270;-76
2024/01/30 11:33:34;;;;;;;0.10;0.10;;;;;;;;;;5044459;28;20211;-76
2024/01/30 11:36:01;;;;;;;0.10;0.10;;;;;;;;;;5034229;28;20254;-76
2024/01/30 11:38:28;;;;;;;0.10;0.10;;;;;;;;;;5044046;28;20233;-75
2024/01/30 11:40:56;;;;;;;0.10;0.10;;;;;;;;;;5034310;28;20249;-76
2024/01/30 11:43:23;;;;;;;0.53;0.53;;;;;;;;;;5044331;28;20229;-76
2024/01/30 11:45:50;;;;;;;0.10;0.10;;;;;;;;;;5034278;28;20244;-76
2024/01/30 11:48:18;;;;;;;0.10;0.10;;;;;;;;;;5043957;28;20228;-76
2024/01/30 11:50:45;;;;;;;0.10;0.10;;;;;;;;;;5034140;28;20437;-76
2024/01/30 11:53:12;;;;;;;0.10;0.10;;;;;;;;;;5043988;28;20264;-76
2024/01/30 11:55:38;;;;;;;0.10;0.10;;;;;;;;;;5034205;28;20447;-75
2024/01/30 11:58:05;;;;;;;0.10;0.10;;;;;;;;;;5043497;28;20221;-76
2024/01/30 12:00:33;;;;;;;0.10;0.10;;;;;;;;;;5034309;28;20451;-76
2024/01/30 12:03:00;;;;;;;0.10;0.10;;;;;;;;;;5043702;28;20257;-76
2024/01/30 12:05:28;;;;;;;0.10;0.10;;;;;;;;;;5033862;28;20213;-75
2024/01/30 12:07:58;;;;;;;0.10;0.10;;;;;;;;;;5043538;28;20425;-76
2024/01/30 12:10:25;;;;;;;0.10;0.10;;;;;;;;;;5033914;28;20197;-76
2024/01/30 12:12:51;;;;;;;0.10;0.10;;;;;;;;;;5043530;28;20204;-76
2024/01/30 12:15:18;;;;;;;0.10;0.10;;;;;;;;;;5033933;28;20232;-76
2024/01/30 12:17:44;;;;;;;0.10;0.10;;;;;;;;;;5043206;28;20208;-76
2024/01/30 12:20:11;;;;;;;0.10;0.10;;;;;;;;;;5033944;28;20297;-76
2024/01/30 12:22:40;;;;;;;0.10;0.10;;;;;;;;;;5043064;28;20185;-76
2024/01/30 12:25:08;;;;;;;0.10;0.10;;;;;;;;;;5043855;28;20249;-76
2024/01/30 12:27:35;;;;;;;0.10;0.10;;;;;;;;;;5032920;28;20212;-76
2024/01/30 12:30:01;;;;;;;0.10;0.10;;;;;;;;;;5044136;28;20389;-76
2024/01/30 12:32:29;;;;;;;0.10;0.10;;;;;;;;;;5032211;28;20622;-76
2024/01/30 12:34:56;;;;;;;0.10;0.10;;;;;;;;;;5043778;28;20511;-76
2024/01/30 12:37:24;;;;;;;0.10;0.10;;;;;;;;;;5032421;28;20253;-76
2024/01/30 12:39:52;;;;;;;0.10;0.10;;;;;;;;;;5043502;28;20227;-76
2024/01/30 12:42:19;;;;;;;0.10;0.10;;;;;;;;;;5032521;28;20237;-76
2024/01/30 12:44:46;;;;;;;0.10;0.10;;;;;;;;;;5043936;28;20450;-77
2024/01/30 12:47:13;;;;;;;0.10;0.10;;;;;;;;;;5032422;28;20316;-76
2024/01/30 12:49:39;;;;;;;0.10;0.10;;;;;;;;;;5043956;28;20224;-76
2024/01/30 12:52:06;;;;;;;0.10;0.10;;;;;;;;;;5032483;28;20242;-76
2024/01/30 12:54:32;;;;;;;0.10;0.10;;;;;;;;;;5043384;28;20205;-76
2024/01/30 12:57:00;;;;;;;0.10;0.10;;;;;;;;;;5032465;28;20305;-75
2024/01/30 12:59:26;;;;;;;0.10;0.10;;;;;;;;;;5043719;28;20428;-76
2024/01/30 13:01:53;;;;;;;0.10;0.10;;;;;;;;;;5032573;28;20255;-76
2024/01/30 13:04:19;;;;;;;0.10;0.10;;;;;;;;;;5043558;28;20223;-76
2024/01/30 13:06:45;;;;;;;0.10;0.10;;;;;;;;;;5032282;28;20312;-76
2024/01/30 13:09:12;;;;;;;0.10;0.10;;;;;;;;;;5043147;28;20201;-76
2024/01/30 13:11:38;;;;;;;0.10;0.10;;;;;;;;;;5032405;28;20299;-76
2024/01/30 13:14:06;;;;;;;0.10;0.10;;;;;;;;;;5043268;28;20209;-73
2024/01/30 13:16:33;;;;;;;0.10;0.10;;;;;;;;;;5032683;28;20493;-74
2024/01/30 13:19:01;;;;;;;0.10;0.10;;;;;;;;;;5043371;28;20252;-75
2024/01/30 13:21:27;;;;;;;0.10;0.10;;;;;;;;;;5032401;28;20245;-78
2024/01/30 13:23:54;;;;;;;0.10;0.10;;;;;;;;;;5043269;28;20392;-77
2024/01/30 13:26:21;;;;;;;0.10;0.10;;;;;;;;;;5032631;28;20240;-78
2024/01/30 13:28:47;;;;;;;0.10;0.10;;;;;;;;;;5043194;28;20456;-77
2024/01/30 13:31:15;;;;;;;0.10;0.10;;;;;;;;;;5032702;28;20447;-77
2024/01/30 13:33:43;;;;;;;0.10;0.10;;;;;;;;;;5042897;28;20219;-78
2024/01/30 13:36:11;;;;;;;0.10;0.10;;;;;;;;;;5032686;28;20300;-77
2024/01/30 13:38:37;;;;;;;0.10;0.10;;;;;;;;;;5042892;28;20233;-78
2024/01/30 13:41:04;;;;;;;0.10;0.10;;;;;;;;;;5032733;28;20308;-78
2024/01/30 13:43:30;;;;;;;0.10;0.10;;;;;;;;;;5042621;28;20220;-79
2024/01/30 13:45:56;;;;;;;0.10;0.10;;;;;;;;;;5035119;28;20253;-78
2024/01/30 13:48:24;;;;;;;0.10;0.10;;;;;;;;;;5046461;28;20207;-77
2024/01/30 13:50:53;;;;;;;0.10;0.10;;;;;;;;;;5036341;28;20278;-78
2024/01/30 13:53:19;;;;;;;0.20;0.20;;;;;;;;;;5046381;28;20205;-77
2024/01/30 13:55:46;;;;;;;0.10;0.10;;;;;;;;;;5036251;28;20270;-77
2024/01/30 13:58:13;;;;;;;0.10;0.10;;;;;;;;;;5045863;28;20208;-77
2024/01/30 14:00:40;;;;;;;0.10;0.10;;;;;;;;;;5036467;28;20269;-77
2024/01/30 14:03:06;;;;;;;0.10;0.10;;;;;;;;;;5045790;28;20238;-77
2024/01/30 14:05:35;;;;;;;0.10;0.10;;;;;;;;;;5036432;28;20318;-77
2024/01/30 14:08:01;;;;;;;0.10;0.10;;;;;;;;;;5045516;28;20305;-77
2024/01/30 14:10:28;;;;;;;0.10;0.10;;;;;;;;;;5036116;28;20401;-77
2024/01/30 14:12:56;;;;;;;0.10;0.10;;;;;;;;;;5045383;28;20214;-77
2024/01/30 14:15:22;;;;;;;0.10;0.10;;;;;;;;;;5035945;28;20210;-78
2024/01/30 14:17:49;;;;;;;0.10;0.10;;;;;;;;;;5045355;28;20217;-77
2024/01/30 14:20:16;;;;;;;0.10;0.10;;;;;;;;;;5036079;28;20261;-77
2024/01/30 14:22:44;;;;;;;0.10;0.10;;;;;;;;;;5045353;28;20236;-77
2024/01/30 14:25:10;;;;;;;0.10;0.10;;;;;;;;;;5036137;28;20208;-77
2024/01/30 14:27:37;;;;;;;0.10;0.10;;;;;;;;;;5045291;28;20228;-77
2024/01/30 14:30:04;;;;;;;0.10;0.10;;;;;;;;;;5046404;28;20227;-77
2024/01/30 14:32:30;;;;;;;0.10;0.10;;;;;;;;;;5034783;28;20334;-77
2024/01/30 14:34:57;;;;;;;0.10;0.10;;;;;;;;;;5046022;28;20453;-77
2024/01/30 14:37:29;;;;;;;0.10;0.10;;;;;;;;;;5034710;28;20237;-78
2024/01/30 14:39:56;;;;;;;0.40;0.40;;;;;;;;;;5045735;28;20232;-77
2024/01/30 14:42:23;;;;;;;0.10;0.10;;;;;;;;;;5034793;28;20261;-77